Bob Baker Memorial Airport
PAIK : now visible

Airfield :











YOU CAN JOIN US ON...

 
LOGIN :

Register | Disclaimer

   EN    FR    IT 

 









Legend :    VFR   Marginal VFR   IFR   Intensive IFR   Very Intensive IFR
Visi :
Ceiling :
>= 8 km
>= 3000ft
5 to 8 km
1000 to 3000 ft
1500m to 5 km
500 to 1000 ft
800 to 1500m
200 to 500 ft
< 800m
< 200 ft
Symbols :   Thunderstorms  Fog  Heavy snow  Heavy precipitations  Wind > 20 kt






- Airport Elevation : 166 ft
- IATA code : IAN


PAIK - Bob Baker Memorial

CURRENT METAR :
  • 281656Z AUTO 00000KT 10SM BKN008 OVC035 M11/M12 A3018 RMK AO2 SNB09E36 SLP224 P0000 T11111122 FZRANO

EXPIRED METARs :
  • 281648Z AUTO 00000KT 10SM BKN008 BKN027 OVC035 M11/M12 A3018 RMK AO2 SNB09E36 P0000 FZRANO
  • 281556Z AUTO 10004KT 9SM SCT028 OVC036 M10/M11 A3017 RMK AO2 SNB18E54 SLP221 P0000 T11001111 FZRANO
  • 281544Z AUTO 00000KT 9SM -SN BKN028 OVC036 M11/M12 A3017 RMK AO2 SNB18 P0000 FZRANO
  • 281456Z AUTO 00000KT 10SM OVC036 M11/M12 A3017 RMK AO2 SLP220 T11111122 58001 FZRANO

TAF N/A
PAZA FIR / North America



MET'MAP, your aeronautical weather chart ! - Copyright ORBIFLY December 2007 - Disclaimer

ORBIFLY MET'MAP TEAM :

Programming & Development : Alexandra Zaïnal
Concept & original design : Baudouin d'Aumeries
Assistance for programming : Marc-Olivier Méhu
Technical & hardware support : Manuel Goepfert

Contact : metmap@orbifly.com




SOURCES & CREDITS :

   NOAA       Earth
Advisory